Houston, TX (77018)

1:26 AM CST on January 18, 2017 (GMT -0600)
Garden Oaks | | Change Station
Active Advisory: Marine Fog Advisory

Elev 89 ft 29.82 °N, 95.43 °W | Updated 3 seconds ago

Overcast
Overcast
61.9 °F
Feels Like 61.9 °F
N
0.0
Wind Variable Wind from East
Gusts 0.0 mph

Today
High -- | Low -- °F
--% Chance of Precip.
Yesterday
High -- | Low -- °F
Precip. -- in
Pressure 30.00 in
Visibility 0.2 miles
Clouds Overcast 100 ft
Dew Point 61 °F
Humidity 97%
Rainfall 0.00 in
Snow Depth Not available.
7:17 AM 5:47 PM
Waning Gibbous, 65% visible
METAR KMCJ 180715Z AUTO 11005KT M1/4SM OVC001 18/18 A3000 RMK AO1
Pressure 30.00 in
Visibility 0.2 miles
Clouds Overcast 100 ft
Dew Point 61 °F
Humidity 97%
Rainfall 0.00 in
Snow Depth Not available.
7:17 AM 5:47 PM
Waning Gibbous, 65% visible
METAR KMCJ 180715Z AUTO 11005KT M1/4SM OVC001 18/18 A3000 RMK AO1

Get Your Daily Forecast Email!

Thanks for signing up!

Be on the lookout for a verification email in your inbox.

You'll start receiving the daily forecast at 8 AM.

×

10-Day Weather Forecast

Almanac

Astronomy

Jan. 18, 2017 Rise Set
Actual Time
Civil Twilight
Nautical Twilight
Astronomical Twilight
Moon
Length of Visible Light
Length of Day
Tomorrow will be .
, % of the Moon is Illuminated

Today's Extremes

State Highs State Lows

Community

WunderPhotos

Upload Photos

1,962,540 photos uploaded!

WunderBlog® & News

Nearby

Air Quality

  Air Quality AQ Index Pollutant
Not available.

Snow Depth

Station Depth Elevation

Earthquake Activity

City Distance Mag. Time & Date
Minimum magnitude displayed is 2.5.

Coastal Water Temperatures

Place Temperature

Stations

Nearby Weather Stations

Station Location Temp. Windchill Dew Point Humidity Wind Precip. Elev Updated Type
                   

Watches & Warnings

Marine Fog Advisory
Issued: 11:43 PM CST Jan. 17, 2017 – National Weather Service

... Dense fog advisory in effect until 4 am CST Wednesday...

The National Weather Service in Houston/Galveston has issued a
dense fog advisory... which is in effect until 4 am CST Wednesday.

* Visibility... below 1 nm at times.

Precautionary/preparedness actions...

Mariners should be prepared for sudden changes in visibility over
short distances. Reduce your speed and keep a lookout for other
vessels... buoys and breakwaters. Keep your navigation lights on.
Inexperienced mariners... especially those operating smaller craft
or not equipped with radar... should consider seeking safe Harbor.